DAL553 KLAS-KLAX
Flight info
| Callsign | DAL553 |
|---|---|
| Flight time | 0h 40m |
| Altitude | 28000 |
| Route | RADYR2 BLAQQ SHTNR ANJLL4 |
| Aircraft | A320/M-SDE3FGHIRWY/LB1 |
Departure
| Time | 2026-05-06 17:56 |
|---|---|
| Airport | Harry Reid International Airport (KLAS) |
Arrival
| Time | 2026-05-06 18:37 |
|---|---|
| Airport | Los Angeles International Airport (KLAX) |
| Time | Latitude | Longitude | Altitude | Speed | Heading |
|---|---|---|---|---|---|
| 2026-05-06 17:21 | 36.08537 | -115.13619 | 2093 ft | 0 kts | 0° |
| 2026-05-06 17:32 | 36.08536 | -115.13619 | 2092 ft | 0 kts | 0° |
| 2026-05-06 17:44 | 36.08514 | -115.13619 | 2092 ft | 4 kts | 2° |
| 2026-05-06 17:44 | 36.08487 | -115.13622 | 2092 ft | 4 kts | 8° |
| 2026-05-06 17:44 | 36.08461 | -115.13629 | 2092 ft | 4 kts | 26° |
| 2026-05-06 17:45 | 36.08444 | -115.13647 | 2092 ft | 3 kts | 84° |
| 2026-05-06 17:45 | 36.08443 | -115.13651 | 2092 ft | 0 kts | 90° |
| 2026-05-06 17:49 | 36.08443 | -115.13638 | 2092 ft | 4 kts | 90° |
| 2026-05-06 17:49 | 36.08444 | -115.13594 | 2092 ft | 7 kts | 90° |
| 2026-05-06 17:49 | 36.08444 | -115.13528 | 2092 ft | 8 kts | 90° |
| 2026-05-06 17:49 | 36.08424 | -115.13459 | 2093 ft | 10 kts | 127° |
| 2026-05-06 17:50 | 36.08377 | -115.13398 | 2093 ft | 10 kts | 135° |
| 2026-05-06 17:50 | 36.08300 | -115.13375 | 2092 ft | 14 kts | 178° |
| 2026-05-06 17:50 | 36.08188 | -115.13376 | 2089 ft | 18 kts | 181° |
| 2026-05-06 17:50 | 36.08058 | -115.13374 | 2089 ft | 20 kts | 179° |
| 2026-05-06 17:51 | 36.07944 | -115.13375 | 2089 ft | 12 kts | 180° |
| 2026-05-06 17:51 | 36.07897 | -115.13375 | 2089 ft | 3 kts | 180° |
| 2026-05-06 17:51 | 36.07886 | -115.13375 | 2089 ft | 0 kts | 180° |
| 2026-05-06 17:51 | 36.07883 | -115.13375 | 2089 ft | 2 kts | 180° |
| 2026-05-06 17:52 | 36.07841 | -115.13367 | 2089 ft | 9 kts | 153° |
| 2026-05-06 17:52 | 36.07827 | -115.13292 | 2088 ft | 11 kts | 90° |
| 2026-05-06 17:52 | 36.07828 | -115.13158 | 2084 ft | 20 kts | 89° |
| 2026-05-06 17:52 | 36.07828 | -115.12965 | 2072 ft | 26 kts | 90° |
| 2026-05-06 17:53 | 36.07828 | -115.12722 | 2066 ft | 31 kts | 90° |
| 2026-05-06 17:53 | 36.07826 | -115.12489 | 2058 ft | 18 kts | 92° |
| 2026-05-06 17:53 | 36.07828 | -115.12375 | 2056 ft | 21 kts | 88° |
| 2026-05-06 17:53 | 36.07802 | -115.12241 | 2052 ft | 9 kts | 153° |
| 2026-05-06 17:54 | 36.07751 | -115.12236 | 2051 ft | 6 kts | 179° |
| 2026-05-06 17:54 | 36.07737 | -115.12236 | 2051 ft | 0 kts | 180° |
| 2026-05-06 17:54 | 36.07710 | -115.12236 | 2050 ft | 6 kts | 180° |
| 2026-05-06 17:55 | 36.07679 | -115.12236 | 2052 ft | 5 kts | 180° |
| 2026-05-06 17:55 | 36.07647 | -115.12254 | 2051 ft | 4 kts | 242° |
| 2026-05-06 17:55 | 36.07645 | -115.12272 | 2051 ft | 0 kts | 263° |
| 2026-05-06 17:55 | 36.07641 | -115.12350 | 2053 ft | 35 kts | 269° |
| 2026-05-06 17:56 | 36.07642 | -115.12930 | 2075 ft | 97 kts | 270° |
| 2026-05-06 17:56 | 36.07642 | -115.13975 | 2094 ft | 145 kts | 270° |
| 2026-05-06 17:56 | 36.07634 | -115.15392 | 2169 ft | 178 kts | 269° |
| 2026-05-06 17:56 | 36.07633 | -115.16909 | 2799 ft | 176 kts | 270° |
| 2026-05-06 17:57 | 36.07630 | -115.18415 | 3462 ft | 177 kts | 270° |
| 2026-05-06 17:57 | 36.07632 | -115.20002 | 3848 ft | 195 kts | 270° |
| 2026-05-06 17:57 | 36.07512 | -115.21754 | 4147 ft | 215 kts | 262° |
| 2026-05-06 17:57 | 36.07250 | -115.23650 | 4564 ft | 231 kts | 260° |
| 2026-05-06 17:58 | 36.06625 | -115.25544 | 5025 ft | 248 kts | 228° |
| 2026-05-06 17:58 | 36.05170 | -115.26790 | 5516 ft | 268 kts | 200° |
| 2026-05-06 17:58 | 36.03359 | -115.27545 | 6198 ft | 278 kts | 200° |
| 2026-05-06 17:58 | 36.01515 | -115.28368 | 6999 ft | 285 kts | 201° |
| 2026-05-06 17:59 | 35.99632 | -115.29222 | 7728 ft | 292 kts | 200° |
| 2026-05-06 17:59 | 35.97626 | -115.29807 | 8512 ft | 298 kts | 190° |
| 2026-05-06 17:59 | 35.95575 | -115.30288 | 9294 ft | 304 kts | 191° |
| 2026-05-06 17:59 | 35.93483 | -115.30798 | 10070 ft | 309 kts | 191° |
| 2026-05-06 18:00 | 35.91309 | -115.31335 | 10389 ft | 330 kts | 191° |
| 2026-05-06 18:00 | 35.88986 | -115.31907 | 10716 ft | 348 kts | 191° |
| 2026-05-06 18:00 | 35.86584 | -115.32496 | 11339 ft | 354 kts | 191° |
| 2026-05-06 18:00 | 35.84151 | -115.33093 | 12023 ft | 358 kts | 191° |
| 2026-05-06 18:01 | 35.81694 | -115.33694 | 12713 ft | 362 kts | 191° |
| 2026-05-06 18:01 | 35.79209 | -115.34302 | 13415 ft | 366 kts | 191° |
| 2026-05-06 18:01 | 35.76704 | -115.34915 | 14083 ft | 369 kts | 191° |
| 2026-05-06 18:01 | 35.74166 | -115.35538 | 14684 ft | 373 kts | 191° |
| 2026-05-06 18:02 | 35.71643 | -115.36158 | 15278 ft | 377 kts | 191° |
| 2026-05-06 18:02 | 35.69021 | -115.36800 | 15862 ft | 381 kts | 191° |
| 2026-05-06 18:02 | 35.66443 | -115.37431 | 16422 ft | 385 kts | 190° |
| 2026-05-06 18:02 | 35.63802 | -115.38076 | 17006 ft | 389 kts | 190° |
| 2026-05-06 18:03 | 35.61119 | -115.38612 | 17588 ft | 392 kts | 183° |
| 2026-05-06 18:03 | 35.58384 | -115.38616 | 18163 ft | 394 kts | 174° |
| 2026-05-06 18:03 | 35.55635 | -115.38411 | 18708 ft | 398 kts | 174° |
| 2026-05-06 18:03 | 35.52855 | -115.38205 | 19242 ft | 402 kts | 174° |
| 2026-05-06 18:04 | 35.50052 | -115.37999 | 19786 ft | 405 kts | 174° |
| 2026-05-06 18:04 | 35.47228 | -115.37867 | 20329 ft | 410 kts | 180° |
| 2026-05-06 18:04 | 35.44375 | -115.38275 | 20863 ft | 415 kts | 191° |
| 2026-05-06 18:04 | 35.41626 | -115.39295 | 21379 ft | 420 kts | 202° |
| 2026-05-06 18:05 | 35.38993 | -115.40868 | 21902 ft | 423 kts | 207° |
| 2026-05-06 18:05 | 35.36373 | -115.42552 | 22431 ft | 426 kts | 207° |
| 2026-05-06 18:05 | 35.33735 | -115.44241 | 22957 ft | 430 kts | 207° |
| 2026-05-06 18:05 | 35.31074 | -115.45937 | 23479 ft | 433 kts | 207° |
| 2026-05-06 18:06 | 35.28391 | -115.47645 | 23922 ft | 436 kts | 207° |
| 2026-05-06 18:06 | 35.25694 | -115.49364 | 24338 ft | 439 kts | 207° |
| 2026-05-06 18:06 | 35.22970 | -115.51100 | 24737 ft | 443 kts | 207° |
| 2026-05-06 18:06 | 35.20230 | -115.52844 | 25131 ft | 446 kts | 207° |
| 2026-05-06 18:07 | 35.17464 | -115.54603 | 25511 ft | 449 kts | 207° |
| 2026-05-06 18:07 | 35.14687 | -115.56396 | 25891 ft | 453 kts | 210° |
| 2026-05-06 18:07 | 35.12085 | -115.58567 | 26264 ft | 456 kts | 219° |
| 2026-05-06 18:07 | 35.09764 | -115.61226 | 26648 ft | 458 kts | 227° |
| 2026-05-06 18:08 | 35.07572 | -115.64060 | 27014 ft | 461 kts | 227° |
| 2026-05-06 18:08 | 35.05354 | -115.66911 | 27346 ft | 464 kts | 227° |
| 2026-05-06 18:08 | 35.03114 | -115.69774 | 27686 ft | 468 kts | 227° |
| 2026-05-06 18:08 | 35.00857 | -115.72647 | 27986 ft | 471 kts | 227° |
| 2026-05-06 18:09 | 34.98607 | -115.75501 | 28052 ft | 460 kts | 227° |
| 2026-05-06 18:09 | 34.96408 | -115.78291 | 28063 ft | 452 kts | 227° |
| 2026-05-06 18:09 | 34.92080 | -115.83793 | 28057 ft | 449 kts | 227° |
| 2026-05-06 18:10 | 34.87762 | -115.89281 | 28063 ft | 448 kts | 227° |
| 2026-05-06 18:10 | 34.83452 | -115.94761 | 28062 ft | 448 kts | 227° |
| 2026-05-06 18:11 | 34.79135 | -116.00239 | 28070 ft | 449 kts | 226° |
| 2026-05-06 18:11 | 34.74806 | -116.05716 | 28067 ft | 449 kts | 226° |
| 2026-05-06 18:12 | 34.70498 | -116.11202 | 28070 ft | 449 kts | 227° |
| 2026-05-06 18:12 | 34.66188 | -116.16704 | 28071 ft | 449 kts | 227° |
| 2026-05-06 18:13 | 34.61877 | -116.22182 | 28075 ft | 449 kts | 227° |
| 2026-05-06 18:13 | 34.57554 | -116.27657 | 28064 ft | 449 kts | 227° |
| 2026-05-06 18:14 | 34.53235 | -116.33131 | 28067 ft | 449 kts | 227° |
| 2026-05-06 18:14 | 34.48910 | -116.38595 | 28072 ft | 449 kts | 226° |
| 2026-05-06 18:15 | 34.44657 | -116.43952 | 27910 ft | 436 kts | 226° |
| 2026-05-06 18:15 | 34.42565 | -116.46672 | 27405 ft | 436 kts | 232° |
| 2026-05-06 18:15 | 34.40891 | -116.49660 | 26931 ft | 433 kts | 244° |
| 2026-05-06 18:16 | 34.39530 | -116.52948 | 26458 ft | 431 kts | 246° |
| 2026-05-06 18:16 | 34.38210 | -116.56172 | 25984 ft | 423 kts | 246° |
| 2026-05-06 18:16 | 34.36903 | -116.59344 | 25541 ft | 419 kts | 246° |
| 2026-05-06 18:16 | 34.35604 | -116.62490 | 25235 ft | 416 kts | 246° |
| 2026-05-06 18:17 | 34.34334 | -116.65562 | 24962 ft | 414 kts | 246° |
| 2026-05-06 18:17 | 34.33029 | -116.68715 | 24691 ft | 412 kts | 246° |
| 2026-05-06 18:17 | 34.31781 | -116.71769 | 24462 ft | 410 kts | 246° |
| 2026-05-06 18:17 | 34.30535 | -116.74856 | 24238 ft | 408 kts | 246° |
| 2026-05-06 18:18 | 34.29300 | -116.77940 | 24011 ft | 406 kts | 246° |
| 2026-05-06 18:18 | 34.28075 | -116.81012 | 23781 ft | 405 kts | 246° |
| 2026-05-06 18:18 | 34.26854 | -116.84072 | 23334 ft | 402 kts | 246° |
| 2026-05-06 18:18 | 34.25641 | -116.87101 | 22903 ft | 400 kts | 246° |
| 2026-05-06 18:19 | 34.24427 | -116.90115 | 22484 ft | 397 kts | 246° |
| 2026-05-06 18:19 | 34.23219 | -116.93103 | 22054 ft | 395 kts | 246° |
| 2026-05-06 18:19 | 34.22015 | -116.96070 | 21616 ft | 392 kts | 246° |
| 2026-05-06 18:19 | 34.20907 | -116.99059 | 21194 ft | 387 kts | 254° |
| 2026-05-06 18:20 | 34.20074 | -117.02140 | 20793 ft | 385 kts | 255° |
| 2026-05-06 18:20 | 34.19250 | -117.05206 | 20366 ft | 382 kts | 255° |
| 2026-05-06 18:20 | 34.18434 | -117.08240 | 19956 ft | 379 kts | 255° |
| 2026-05-06 18:20 | 34.17619 | -117.11261 | 19535 ft | 377 kts | 255° |
| 2026-05-06 18:21 | 34.16802 | -117.14266 | 19129 ft | 376 kts | 255° |
| 2026-05-06 18:21 | 34.15983 | -117.17255 | 18707 ft | 373 kts | 254° |
| 2026-05-06 18:21 | 34.15165 | -117.20216 | 18279 ft | 370 kts | 253° |
| 2026-05-06 18:21 | 34.14357 | -117.23138 | 17762 ft | 364 kts | 254° |
| 2026-05-06 18:22 | 34.13563 | -117.26014 | 17365 ft | 362 kts | 254° |
| 2026-05-06 18:22 | 34.12768 | -117.28899 | 16961 ft | 360 kts | 254° |
| 2026-05-06 18:22 | 34.11983 | -117.31748 | 16567 ft | 357 kts | 254° |
| 2026-05-06 18:22 | 34.11200 | -117.34583 | 16165 ft | 354 kts | 254° |
| 2026-05-06 18:23 | 34.10431 | -117.37362 | 15797 ft | 345 kts | 255° |
| 2026-05-06 18:23 | 34.09720 | -117.40048 | 15658 ft | 323 kts | 256° |
| 2026-05-06 18:23 | 34.09086 | -117.42560 | 15501 ft | 305 kts | 256° |
| 2026-05-06 18:23 | 34.08489 | -117.44978 | 15123 ft | 297 kts | 257° |
| 2026-05-06 18:24 | 34.07909 | -117.47349 | 14673 ft | 293 kts | 257° |
| 2026-05-06 18:24 | 34.07348 | -117.49692 | 14210 ft | 289 kts | 261° |
| 2026-05-06 18:24 | 34.06993 | -117.52015 | 13725 ft | 284 kts | 264° |
| 2026-05-06 18:24 | 34.06655 | -117.54393 | 13165 ft | 283 kts | 264° |
| 2026-05-06 18:25 | 34.06314 | -117.56719 | 12724 ft | 280 kts | 263° |
| 2026-05-06 18:25 | 34.05978 | -117.58991 | 12309 ft | 278 kts | 263° |
| 2026-05-06 18:25 | 34.05639 | -117.61283 | 11887 ft | 277 kts | 263° |
| 2026-05-06 18:25 | 34.05300 | -117.63585 | 11471 ft | 281 kts | 263° |
| 2026-05-06 18:26 | 34.04956 | -117.65926 | 11263 ft | 276 kts | 263° |
| 2026-05-06 18:26 | 34.04622 | -117.68179 | 11034 ft | 273 kts | 263° |
| 2026-05-06 18:26 | 34.04293 | -117.70404 | 10769 ft | 271 kts | 263° |
| 2026-05-06 18:26 | 34.03962 | -117.72638 | 10512 ft | 270 kts | 263° |
| 2026-05-06 18:27 | 34.03632 | -117.74844 | 10196 ft | 269 kts | 263° |
| 2026-05-06 18:27 | 34.03305 | -117.77028 | 9924 ft | 259 kts | 263° |
| 2026-05-06 18:27 | 34.02985 | -117.79174 | 9349 ft | 260 kts | 263° |
| 2026-05-06 18:27 | 34.02666 | -117.81317 | 8864 ft | 258 kts | 262° |
| 2026-05-06 18:28 | 34.02351 | -117.83434 | 8404 ft | 256 kts | 262° |
| 2026-05-06 18:28 | 34.02036 | -117.85538 | 7946 ft | 253 kts | 262° |
| 2026-05-06 18:28 | 34.01727 | -117.87604 | 7485 ft | 250 kts | 262° |
| 2026-05-06 18:28 | 34.01419 | -117.89666 | 7046 ft | 246 kts | 262° |
| 2026-05-06 18:29 | 34.01119 | -117.91683 | 6614 ft | 244 kts | 262° |
| 2026-05-06 18:29 | 34.00817 | -117.93686 | 6161 ft | 241 kts | 262° |
| 2026-05-06 18:29 | 34.00519 | -117.95662 | 5722 ft | 238 kts | 261° |
| 2026-05-06 18:29 | 34.00224 | -117.97616 | 5299 ft | 235 kts | 262° |
| 2026-05-06 18:30 | 33.99940 | -117.99499 | 5152 ft | 219 kts | 262° |
| 2026-05-06 18:30 | 33.99674 | -118.01252 | 5089 ft | 210 kts | 262° |
| 2026-05-06 18:30 | 33.99414 | -118.02975 | 5043 ft | 208 kts | 262° |
| 2026-05-06 18:30 | 33.99155 | -118.04693 | 4963 ft | 207 kts | 261° |
| 2026-05-06 18:31 | 33.98898 | -118.06395 | 4873 ft | 206 kts | 261° |
| 2026-05-06 18:31 | 33.98640 | -118.08098 | 4776 ft | 206 kts | 262° |
| 2026-05-06 18:31 | 33.98383 | -118.09798 | 4686 ft | 206 kts | 262° |
| 2026-05-06 18:31 | 33.98127 | -118.11490 | 4602 ft | 205 kts | 262° |
| 2026-05-06 18:32 | 33.97919 | -118.13179 | 4463 ft | 204 kts | 266° |
| 2026-05-06 18:32 | 33.97761 | -118.14870 | 4234 ft | 203 kts | 266° |
| 2026-05-06 18:32 | 33.97597 | -118.16553 | 3985 ft | 202 kts | 265° |
| 2026-05-06 18:32 | 33.97431 | -118.18231 | 3725 ft | 201 kts | 265° |
| 2026-05-06 18:33 | 33.97264 | -118.19896 | 3462 ft | 200 kts | 265° |
| 2026-05-06 18:33 | 33.97098 | -118.21548 | 3201 ft | 198 kts | 265° |
| 2026-05-06 18:33 | 33.96932 | -118.23204 | 2937 ft | 198 kts | 263° |
| 2026-05-06 18:33 | 33.96767 | -118.24837 | 2681 ft | 197 kts | 263° |
| 2026-05-06 18:34 | 33.96601 | -118.26480 | 2411 ft | 197 kts | 262° |
| 2026-05-06 18:34 | 33.96438 | -118.28096 | 2177 ft | 192 kts | 261° |
| 2026-05-06 18:34 | 33.96278 | -118.29678 | 1894 ft | 188 kts | 262° |
| 2026-05-06 18:34 | 33.96123 | -118.31220 | 1643 ft | 181 kts | 261° |
| 2026-05-06 18:35 | 33.95977 | -118.32657 | 1404 ft | 165 kts | 261° |
| 2026-05-06 18:35 | 33.95843 | -118.33979 | 1193 ft | 154 kts | 262° |
| 2026-05-06 18:35 | 33.95715 | -118.35232 | 976 ft | 147 kts | 262° |
| 2026-05-06 18:35 | 33.95595 | -118.36440 | 776 ft | 144 kts | 262° |
| 2026-05-06 18:36 | 33.95474 | -118.37617 | 623 ft | 140 kts | 262° |
| 2026-05-06 18:36 | 33.95362 | -118.38770 | 382 ft | 139 kts | 262° |
| 2026-05-06 18:36 | 33.95242 | -118.39918 | 174 ft | 137 kts | 262° |
| 2026-05-06 18:36 | 33.95126 | -118.41017 | 95 ft | 119 kts | 263° |
| 2026-05-06 18:37 | 33.95047 | -118.41792 | 97 ft | 67 kts | 263° |
| 2026-05-06 18:37 | 33.95022 | -118.42057 | 93 ft | 32 kts | 262° |
| 2026-05-06 18:37 | 33.94977 | -118.42292 | 94 ft | 17 kts | 246° |
| 2026-05-06 18:37 | 33.94920 | -118.42401 | 94 ft | 11 kts | 230° |
| 2026-05-06 18:38 | 33.94884 | -118.42446 | 95 ft | 2 kts | 221° |
| 2026-05-06 18:38 | 33.94879 | -118.42451 | 96 ft | 0 kts | 221° |
| 2026-05-06 18:39 | 33.94879 | -118.42452 | 95 ft | 0 kts | 221° |
| 2026-05-06 18:39 | 33.94868 | -118.42463 | 97 ft | 3 kts | 219° |
| 2026-05-06 18:39 | 33.94846 | -118.42478 | 99 ft | 4 kts | 202° |
| 2026-05-06 18:40 | 33.94723 | -118.42484 | 99 ft | 13 kts | 173° |
| 2026-05-06 18:40 | 33.94672 | -118.42457 | 96 ft | 8 kts | 126° |
| 2026-05-06 18:40 | 33.94668 | -118.42372 | 94 ft | 13 kts | 84° |
| 2026-05-06 18:40 | 33.94680 | -118.42252 | 94 ft | 16 kts | 83° |
| 2026-05-06 18:41 | 33.94696 | -118.42107 | 94 ft | 18 kts | 83° |
| 2026-05-06 18:41 | 33.94712 | -118.41943 | 93 ft | 21 kts | 83° |
| 2026-05-06 18:41 | 33.94730 | -118.41757 | 95 ft | 24 kts | 82° |
| 2026-05-06 18:41 | 33.94751 | -118.41551 | 96 ft | 26 kts | 83° |
| 2026-05-06 18:42 | 33.94768 | -118.41415 | 94 ft | 12 kts | 72° |
| 2026-05-06 18:42 | 33.94789 | -118.41311 | 94 ft | 14 kts | 81° |
| 2026-05-06 18:42 | 33.94803 | -118.41178 | 96 ft | 20 kts | 85° |
| 2026-05-06 18:42 | 33.94821 | -118.41001 | 95 ft | 21 kts | 84° |
| 2026-05-06 18:43 | 33.94805 | -118.40891 | 95 ft | 9 kts | 140° |
| 2026-05-06 18:43 | 33.94759 | -118.40846 | 93 ft | 8 kts | 116° |
| 2026-05-06 18:43 | 33.94756 | -118.40811 | 93 ft | 3 kts | 94° |
| 2026-05-06 18:43 | 33.94737 | -118.40795 | 95 ft | 3 kts | 154° |
| 2026-05-06 18:44 | 33.94716 | -118.40786 | 95 ft | 3 kts | 162° |
| 2026-05-06 18:44 | 33.94705 | -118.40782 | 95 ft | 0 kts | 163° |